CSN186 ZYCC-PGUM
Flight info
| Callsign | CSN186 |
|---|---|
| Flight time | N/A |
| Altitude | 33000 |
| Route | IDVOT G341 KANVU W39 YNJ R224 KANSU Z56 IGRAS Y332 MIHOU Y38 ROKKO V55 KEC Y47 OTOWA A597 MAYON Y47 TAPOP A597 WUVEN |
| Aircraft | B752/M-VGDW/C |
Departure
| Time | 2026-04-14 04:11 |
|---|---|
| Airport | Changchun Longjia International Airport (ZYCC) |
Arrival
| Time | N/A |
|---|---|
| Airport | Antonio B. Won Pat International Airport (PGUM) |
| Time | Latitude | Longitude | Altitude | Speed | Heading |
|---|---|---|---|---|---|
| 2026-04-14 03:58 | 43.99545 | 125.69202 | 717 ft | 0 kts | 139° |
| 2026-04-14 04:01 | 43.99546 | 125.69202 | 717 ft | 0 kts | 139° |
| 2026-04-14 04:02 | 43.99556 | 125.69189 | 717 ft | 2 kts | 139° |
| 2026-04-14 04:02 | 43.99567 | 125.69175 | 717 ft | 2 kts | 139° |
| 2026-04-14 04:02 | 43.99576 | 125.69165 | 717 ft | 0 kts | 139° |
| 2026-04-14 04:02 | 43.99585 | 125.69151 | 717 ft | 2 kts | 113° |
| 2026-04-14 04:03 | 43.99588 | 125.69131 | 717 ft | 2 kts | 84° |
| 2026-04-14 04:03 | 43.99584 | 125.69111 | 717 ft | 1 kts | 56° |
| 2026-04-14 04:03 | 43.99580 | 125.69105 | 717 ft | 1 kts | 46° |
| 2026-04-14 04:03 | 43.99578 | 125.69101 | 717 ft | 0 kts | 49° |
| 2026-04-14 04:06 | 43.99592 | 125.69124 | 717 ft | 5 kts | 50° |
| 2026-04-14 04:06 | 43.99621 | 125.69175 | 717 ft | 7 kts | 53° |
| 2026-04-14 04:06 | 43.99662 | 125.69241 | 717 ft | 11 kts | 50° |
| 2026-04-14 04:06 | 43.99730 | 125.69352 | 717 ft | 18 kts | 50° |
| 2026-04-14 04:07 | 43.99825 | 125.69503 | 717 ft | 21 kts | 48° |
| 2026-04-14 04:07 | 43.99927 | 125.69659 | 717 ft | 22 kts | 48° |
| 2026-04-14 04:07 | 44.00026 | 125.69792 | 717 ft | 13 kts | 11° |
| 2026-04-14 04:07 | 44.00100 | 125.69724 | 717 ft | 15 kts | 322° |
| 2026-04-14 04:08 | 44.00191 | 125.69779 | 717 ft | 18 kts | 52° |
| 2026-04-14 04:08 | 44.00282 | 125.69933 | 717 ft | 22 kts | 49° |
| 2026-04-14 04:08 | 44.00396 | 125.70110 | 717 ft | 24 kts | 51° |
| 2026-04-14 04:08 | 44.00464 | 125.70136 | 717 ft | 7 kts | 316° |
| 2026-04-14 04:09 | 44.00465 | 125.70134 | 717 ft | 0 kts | 313° |
| 2026-04-14 04:09 | 44.00466 | 125.70133 | 717 ft | 0 kts | 313° |
| 2026-04-14 04:09 | 44.00486 | 125.70107 | 717 ft | 6 kts | 320° |
| 2026-04-14 04:10 | 44.00529 | 125.70060 | 717 ft | 9 kts | 314° |
| 2026-04-14 04:10 | 44.00526 | 125.69961 | 717 ft | 12 kts | 231° |
| 2026-04-14 04:10 | 44.00403 | 125.69762 | 717 ft | 50 kts | 229° |
| 2026-04-14 04:10 | 44.00064 | 125.69219 | 717 ft | 100 kts | 230° |
| 2026-04-14 04:11 | 43.99497 | 125.68302 | 718 ft | 148 kts | 229° |
| 2026-04-14 04:11 | 43.98769 | 125.67145 | 964 ft | 164 kts | 230° |
| 2026-04-14 04:11 | 43.98033 | 125.65865 | 1295 ft | 175 kts | 234° |
| 2026-04-14 04:11 | 43.97297 | 125.64553 | 1893 ft | 170 kts | 232° |
| 2026-04-14 04:12 | 43.96571 | 125.63290 | 2288 ft | 171 kts | 228° |
| 2026-04-14 04:12 | 43.95710 | 125.62034 | 2312 ft | 190 kts | 227° |
| 2026-04-14 04:12 | 43.94729 | 125.60607 | 2281 ft | 219 kts | 219° |
| 2026-04-14 04:12 | 43.93286 | 125.59724 | 2436 ft | 239 kts | 185° |
| 2026-04-14 04:13 | 43.91674 | 125.60143 | 3046 ft | 239 kts | 152° |
| 2026-04-14 04:13 | 43.90355 | 125.61615 | 3282 ft | 258 kts | 134° |
| 2026-04-14 04:13 | 43.89084 | 125.63404 | 3844 ft | 262 kts | 137° |
| 2026-04-14 04:13 | 43.87750 | 125.65118 | 4482 ft | 264 kts | 138° |
| 2026-04-14 04:14 | 43.86396 | 125.66849 | 5073 ft | 268 kts | 132° |
| 2026-04-14 04:14 | 43.85725 | 125.68179 | 5436 ft | 271 kts | 118° |
| 2026-04-14 04:14 | 43.84975 | 125.70593 | 5964 ft | 277 kts | 114° |
| 2026-04-14 04:14 | 43.84244 | 125.73061 | 6510 ft | 281 kts | 114° |
| 2026-04-14 04:15 | 43.83503 | 125.75569 | 7038 ft | 286 kts | 114° |
| 2026-04-14 04:15 | 43.82747 | 125.78141 | 7596 ft | 290 kts | 114° |
| 2026-04-14 04:15 | 43.81981 | 125.80750 | 8118 ft | 295 kts | 114° |
| 2026-04-14 04:15 | 43.81209 | 125.83379 | 8649 ft | 299 kts | 114° |
| 2026-04-14 04:16 | 43.80421 | 125.86063 | 9181 ft | 303 kts | 115° |
| 2026-04-14 04:16 | 43.79625 | 125.88773 | 9717 ft | 306 kts | 114° |
| 2026-04-14 04:16 | 43.78831 | 125.91470 | 10241 ft | 309 kts | 114° |
| 2026-04-14 04:16 | 43.77996 | 125.94303 | 10403 ft | 327 kts | 114° |
| 2026-04-14 04:17 | 43.77107 | 125.97315 | 10427 ft | 350 kts | 114° |
| 2026-04-14 04:17 | 43.76158 | 126.00528 | 10450 ft | 373 kts | 114° |
| 2026-04-14 04:17 | 43.75355 | 126.03983 | 10875 ft | 383 kts | 102° |
| 2026-04-14 04:17 | 43.74944 | 126.07619 | 11484 ft | 387 kts | 99° |
| 2026-04-14 04:18 | 43.74550 | 126.11371 | 11913 ft | 396 kts | 99° |
| 2026-04-14 04:18 | 43.74158 | 126.15125 | 12558 ft | 398 kts | 98° |
| 2026-04-14 04:18 | 43.73763 | 126.18942 | 13077 ft | 404 kts | 98° |
| 2026-04-14 04:18 | 43.73367 | 126.22776 | 13643 ft | 408 kts | 98° |
| 2026-04-14 04:19 | 43.72966 | 126.26657 | 14169 ft | 412 kts | 98° |
| 2026-04-14 04:19 | 43.72554 | 126.30636 | 14712 ft | 417 kts | 98° |
| 2026-04-14 04:19 | 43.72141 | 126.34605 | 15257 ft | 420 kts | 98° |
| 2026-04-14 04:19 | 43.71728 | 126.38563 | 15773 ft | 424 kts | 98° |
| 2026-04-14 04:20 | 43.71301 | 126.42640 | 16294 ft | 428 kts | 98° |
| 2026-04-14 04:20 | 43.70877 | 126.46680 | 16791 ft | 431 kts | 98° |
| 2026-04-14 04:20 | 43.70441 | 126.50813 | 17288 ft | 435 kts | 98° |
| 2026-04-14 04:20 | 43.70018 | 126.54963 | 17771 ft | 439 kts | 98° |
| 2026-04-14 04:21 | 43.69591 | 126.59174 | 18248 ft | 442 kts | 98° |
| 2026-04-14 04:21 | 43.69165 | 126.63359 | 18697 ft | 446 kts | 98° |
| 2026-04-14 04:21 | 43.68728 | 126.67628 | 19131 ft | 450 kts | 99° |
| 2026-04-14 04:21 | 43.68286 | 126.71930 | 19557 ft | 453 kts | 99° |
| 2026-04-14 04:22 | 43.67840 | 126.76258 | 19968 ft | 457 kts | 99° |
| 2026-04-14 04:22 | 43.67392 | 126.80579 | 20363 ft | 461 kts | 99° |
| 2026-04-14 04:22 | 43.66935 | 126.84975 | 20770 ft | 464 kts | 99° |
| 2026-04-14 04:22 | 43.66472 | 126.89418 | 21161 ft | 467 kts | 99° |
| 2026-04-14 04:23 | 43.66010 | 126.93820 | 21543 ft | 471 kts | 99° |
| 2026-04-14 04:23 | 43.65537 | 126.98318 | 21921 ft | 474 kts | 99° |
| 2026-04-14 04:23 | 43.65060 | 127.02841 | 22292 ft | 477 kts | 99° |
| 2026-04-14 04:23 | 43.64580 | 127.07365 | 22653 ft | 480 kts | 99° |
| 2026-04-14 04:24 | 43.64096 | 127.11912 | 23007 ft | 483 kts | 100° |
| 2026-04-14 04:24 | 43.63607 | 127.16496 | 23354 ft | 486 kts | 100° |
| 2026-04-14 04:24 | 43.63112 | 127.21105 | 23695 ft | 489 kts | 100° |
| 2026-04-14 04:24 | 43.62607 | 127.25794 | 24065 ft | 491 kts | 100° |
| 2026-04-14 04:25 | 43.62075 | 127.30469 | 24327 ft | 496 kts | 101° |
| 2026-04-14 04:25 | 43.61490 | 127.35147 | 24720 ft | 497 kts | 101° |
| 2026-04-14 04:25 | 43.60903 | 127.39854 | 25037 ft | 499 kts | 101° |
| 2026-04-14 04:25 | 43.60319 | 127.44522 | 25367 ft | 502 kts | 101° |
| 2026-04-14 04:26 | 43.59723 | 127.49280 | 25690 ft | 504 kts | 101° |
| 2026-04-14 04:26 | 43.59125 | 127.54025 | 26003 ft | 506 kts | 101° |
| 2026-04-14 04:26 | 43.58519 | 127.58836 | 26342 ft | 507 kts | 101° |
| 2026-04-14 04:26 | 43.57915 | 127.63604 | 26548 ft | 512 kts | 101° |
| 2026-04-14 04:27 | 43.57296 | 127.68469 | 26874 ft | 513 kts | 102° |
| 2026-04-14 04:27 | 43.56682 | 127.73280 | 27121 ft | 516 kts | 102° |
| 2026-04-14 04:27 | 43.56053 | 127.78197 | 27349 ft | 519 kts | 102° |
| 2026-04-14 04:27 | 43.55426 | 127.83070 | 27551 ft | 522 kts | 102° |
| 2026-04-14 04:28 | 43.54787 | 127.88037 | 27841 ft | 524 kts | 102° |
| 2026-04-14 04:28 | 43.54156 | 127.92922 | 28062 ft | 526 kts | 102° |
| 2026-04-14 04:28 | 43.53508 | 127.97916 | 28316 ft | 528 kts | 102° |
| 2026-04-14 04:28 | 43.52862 | 128.02885 | 28546 ft | 531 kts | 102° |
| 2026-04-14 04:29 | 43.52204 | 128.07925 | 28783 ft | 533 kts | 103° |
| 2026-04-14 04:29 | 43.51553 | 128.12886 | 29008 ft | 535 kts | 103° |
| 2026-04-14 04:29 | 43.50885 | 128.17967 | 29235 ft | 537 kts | 103° |
| 2026-04-14 04:29 | 43.50219 | 128.23013 | 29455 ft | 539 kts | 103° |
| 2026-04-14 04:30 | 43.49547 | 128.28091 | 29626 ft | 542 kts | 102° |
| 2026-04-14 04:30 | 43.48896 | 128.33217 | 29816 ft | 545 kts | 102° |
| 2026-04-14 04:30 | 43.48259 | 128.38281 | 30046 ft | 546 kts | 102° |
| 2026-04-14 04:30 | 43.47604 | 128.43457 | 30238 ft | 548 kts | 102° |
| 2026-04-14 04:31 | 43.46951 | 128.48595 | 30450 ft | 550 kts | 102° |
| 2026-04-14 04:31 | 43.46283 | 128.53833 | 30644 ft | 552 kts | 102° |
| 2026-04-14 04:31 | 43.44957 | 128.64165 | 31095 ft | 553 kts | 102° |
| 2026-04-14 04:32 | 43.44284 | 128.69386 | 31360 ft | 552 kts | 103° |
| 2026-04-14 04:32 | 43.43609 | 128.74593 | 31587 ft | 552 kts | 103° |
| 2026-04-14 04:32 | 43.42936 | 128.79764 | 31715 ft | 554 kts | 103° |
| 2026-04-14 04:32 | 43.42262 | 128.84927 | 31927 ft | 554 kts | 103° |
| 2026-04-14 04:33 | 43.41524 | 128.90143 | 32165 ft | 551 kts | 107° |
| 2026-04-14 04:33 | 43.40384 | 128.95137 | 32340 ft | 547 kts | 116° |
| 2026-04-14 04:33 | 43.38763 | 128.99832 | 32522 ft | 541 kts | 125° |
| 2026-04-14 04:33 | 43.36821 | 129.04147 | 32709 ft | 535 kts | 131° |
| 2026-04-14 04:34 | 43.34506 | 129.08083 | 32883 ft | 526 kts | 140° |
| 2026-04-14 04:34 | 43.31848 | 129.11467 | 33041 ft | 516 kts | 149° |
| 2026-04-14 04:34 | 43.25913 | 129.16650 | 33058 ft | 505 kts | 159° |
| 2026-04-14 04:35 | 43.19817 | 129.21384 | 33111 ft | 505 kts | 159° |
| 2026-04-14 04:35 | 43.13723 | 129.26036 | 33110 ft | 505 kts | 159° |
| 2026-04-14 04:36 | 43.07592 | 129.30681 | 33112 ft | 504 kts | 159° |
| 2026-04-14 04:36 | 43.01471 | 129.35298 | 33112 ft | 504 kts | 159° |
| 2026-04-14 04:37 | 42.95373 | 129.39885 | 33113 ft | 504 kts | 159° |
| 2026-04-14 04:37 | 42.89228 | 129.44496 | 33114 ft | 504 kts | 159° |
| 2026-04-14 04:38 | 42.83036 | 129.48843 | 33115 ft | 502 kts | 161° |
| 2026-04-14 04:38 | 42.76836 | 129.53124 | 33116 ft | 502 kts | 161° |
| 2026-04-14 04:39 | 42.70642 | 129.57397 | 33090 ft | 497 kts | 161° |
| 2026-04-14 04:39 | 42.64556 | 129.61583 | 33095 ft | 496 kts | 161° |
| 2026-04-14 04:40 | 42.58384 | 129.65819 | 33086 ft | 497 kts | 162° |
| 2026-04-14 04:41 | 42.49168 | 129.72128 | 33080 ft | 496 kts | 162° |
| 2026-04-14 04:41 | 42.43093 | 129.76517 | 33090 ft | 500 kts | 159° |
| 2026-04-14 04:42 | 42.37042 | 129.81142 | 33118 ft | 502 kts | 159° |
| 2026-04-14 04:42 | 42.30997 | 129.85741 | 33118 ft | 501 kts | 159° |
| 2026-04-14 04:43 | 42.24937 | 129.90335 | 33119 ft | 501 kts | 159° |
| 2026-04-14 04:43 | 42.18916 | 129.94891 | 33183 ft | 501 kts | 160° |
| 2026-04-14 04:44 | 42.12847 | 129.99472 | 33182 ft | 501 kts | 160° |
| 2026-04-14 04:44 | 42.06772 | 130.04047 | 33183 ft | 501 kts | 160° |
| 2026-04-14 04:45 | 42.00724 | 130.08591 | 33183 ft | 501 kts | 160° |
| 2026-04-14 04:45 | 41.94636 | 130.13156 | 33184 ft | 501 kts | 160° |
| 2026-04-14 04:46 | 41.88594 | 130.17676 | 33186 ft | 501 kts | 160° |
| 2026-04-14 04:46 | 41.82523 | 130.22208 | 33187 ft | 501 kts | 160° |
| 2026-04-14 04:47 | 41.76434 | 130.26743 | 33184 ft | 501 kts | 160° |
| 2026-04-14 04:47 | 41.70387 | 130.31236 | 33178 ft | 505 kts | 160° |
| 2026-04-14 04:48 | 41.64221 | 130.35806 | 33178 ft | 507 kts | 160° |
| 2026-04-14 04:48 | 41.58055 | 130.40369 | 33179 ft | 507 kts | 160° |
| 2026-04-14 04:49 | 41.51936 | 130.44885 | 33180 ft | 507 kts | 160° |
| 2026-04-14 04:49 | 41.45780 | 130.49420 | 33180 ft | 507 kts | 160° |
| 2026-04-14 04:50 | 41.39648 | 130.53926 | 33181 ft | 507 kts | 160° |
| 2026-04-14 04:50 | 41.33456 | 130.58467 | 33182 ft | 507 kts | 160° |
| 2026-04-14 04:51 | 41.27316 | 130.62961 | 33183 ft | 507 kts | 160° |
| 2026-04-14 04:51 | 41.21152 | 130.67462 | 33161 ft | 505 kts | 161° |
| 2026-04-14 04:52 | 41.15019 | 130.71928 | 33164 ft | 506 kts | 161° |
| 2026-04-14 04:52 | 41.08878 | 130.76393 | 33160 ft | 506 kts | 161° |
| 2026-04-14 04:53 | 41.02707 | 130.80868 | 33159 ft | 508 kts | 161° |
| 2026-04-14 04:53 | 40.96554 | 130.85324 | 33159 ft | 507 kts | 161° |
| 2026-04-14 04:54 | 40.90389 | 130.89777 | 33160 ft | 507 kts | 161° |
| 2026-04-14 04:54 | 40.84206 | 130.94232 | 33162 ft | 507 kts | 161° |
| 2026-04-14 04:55 | 40.78046 | 130.98663 | 33163 ft | 507 kts | 161° |
| 2026-04-14 04:55 | 40.71865 | 131.03099 | 33159 ft | 507 kts | 161° |
| 2026-04-14 04:56 | 40.65686 | 131.07526 | 33160 ft | 507 kts | 161° |
| 2026-04-14 04:56 | 40.59507 | 131.11940 | 33160 ft | 507 kts | 161° |
| 2026-04-14 04:57 | 40.53348 | 131.16333 | 33161 ft | 507 kts | 161° |
| 2026-04-14 04:57 | 40.47183 | 131.20720 | 33162 ft | 507 kts | 161° |
| 2026-04-14 04:58 | 40.40981 | 131.25125 | 33162 ft | 507 kts | 161° |
| 2026-04-14 04:58 | 40.34789 | 131.29512 | 33165 ft | 509 kts | 161° |
| 2026-04-14 04:59 | 40.28593 | 131.33894 | 33165 ft | 508 kts | 161° |
| 2026-04-14 04:59 | 40.22393 | 131.38269 | 33160 ft | 508 kts | 160° |
| 2026-04-14 05:00 | 40.16223 | 131.42615 | 33159 ft | 506 kts | 160° |
| 2026-04-14 05:00 | 40.10010 | 131.46980 | 33159 ft | 507 kts | 160° |
| 2026-04-14 05:01 | 40.03845 | 131.51305 | 33160 ft | 507 kts | 160° |
| 2026-04-14 05:01 | 39.97669 | 131.55627 | 33160 ft | 507 kts | 160° |
| 2026-04-14 05:02 | 39.91446 | 131.59973 | 33161 ft | 507 kts | 160° |
| 2026-04-14 05:02 | 39.85287 | 131.64264 | 33163 ft | 507 kts | 160° |
| 2026-04-14 05:03 | 39.79107 | 131.68564 | 33146 ft | 505 kts | 161° |
| 2026-04-14 05:03 | 39.72890 | 131.72879 | 33146 ft | 504 kts | 161° |
| 2026-04-14 05:04 | 39.66780 | 131.77113 | 33138 ft | 502 kts | 161° |
| 2026-04-14 05:04 | 39.60626 | 131.81364 | 33137 ft | 504 kts | 161° |
| 2026-04-14 05:05 | 39.54480 | 131.85605 | 33138 ft | 503 kts | 161° |
| 2026-04-14 05:05 | 39.48318 | 131.89847 | 33139 ft | 503 kts | 161° |
| 2026-04-14 05:06 | 39.42126 | 131.94101 | 33139 ft | 503 kts | 161° |
| 2026-04-14 05:06 | 39.36005 | 131.98299 | 33140 ft | 503 kts | 161° |
| 2026-04-14 05:07 | 39.29808 | 132.02539 | 33141 ft | 503 kts | 161° |
| 2026-04-14 05:07 | 39.23650 | 132.06744 | 33140 ft | 503 kts | 161° |
| 2026-04-14 05:08 | 39.17508 | 132.10934 | 33134 ft | 499 kts | 161° |
| 2026-04-14 05:08 | 39.11400 | 132.15086 | 33135 ft | 500 kts | 161° |
| 2026-04-14 05:09 | 39.05270 | 132.19247 | 33135 ft | 500 kts | 161° |
| 2026-04-14 05:09 | 38.99123 | 132.23413 | 33136 ft | 500 kts | 161° |
| 2026-04-14 05:10 | 38.92987 | 132.27563 | 33142 ft | 501 kts | 161° |
| 2026-04-14 05:10 | 38.86847 | 132.31706 | 33144 ft | 501 kts | 161° |
| 2026-04-14 05:11 | 38.80703 | 132.35844 | 33144 ft | 501 kts | 161° |
| 2026-04-14 05:11 | 38.74546 | 132.39983 | 33145 ft | 501 kts | 161° |
| 2026-04-14 05:12 | 38.68362 | 132.44128 | 33128 ft | 504 kts | 161° |
| 2026-04-14 05:12 | 38.62057 | 132.47412 | 33138 ft | 484 kts | 175° |
| 2026-04-14 05:13 | 38.55510 | 132.48961 | 33129 ft | 479 kts | 179° |
| 2026-04-14 05:13 | 38.48970 | 132.50340 | 33129 ft | 478 kts | 180° |
| 2026-04-14 05:14 | 38.42441 | 132.51669 | 33129 ft | 478 kts | 180° |
| 2026-04-14 05:14 | 38.35912 | 132.52982 | 33129 ft | 477 kts | 180° |
| 2026-04-14 05:15 | 38.29373 | 132.54286 | 33129 ft | 477 kts | 180° |
| 2026-04-14 05:15 | 38.22834 | 132.55586 | 33124 ft | 478 kts | 180° |
| 2026-04-14 05:16 | 38.16274 | 132.56888 | 33119 ft | 479 kts | 180° |
| 2026-04-14 05:16 | 38.09713 | 132.58189 | 33119 ft | 479 kts | 180° |
| 2026-04-14 05:17 | 38.03139 | 132.59488 | 33120 ft | 479 kts | 180° |
| 2026-04-14 05:17 | 37.96600 | 132.60779 | 33120 ft | 479 kts | 180° |
| 2026-04-14 05:18 | 37.90049 | 132.62079 | 33120 ft | 479 kts | 179° |
| 2026-04-14 05:18 | 37.83511 | 132.63373 | 33121 ft | 479 kts | 179° |
| 2026-04-14 05:19 | 37.76951 | 132.64668 | 33121 ft | 479 kts | 179° |
| 2026-04-14 05:19 | 37.70412 | 132.65961 | 33085 ft | 476 kts | 180° |
| 2026-04-14 05:20 | 37.63854 | 132.67250 | 33088 ft | 477 kts | 180° |
| 2026-04-14 05:20 | 37.57354 | 132.68526 | 33087 ft | 477 kts | 180° |
| 2026-04-14 05:21 | 37.50794 | 132.69810 | 33088 ft | 477 kts | 180° |
| 2026-04-14 05:21 | 37.44260 | 132.71086 | 33088 ft | 477 kts | 180° |
| 2026-04-14 05:22 | 37.37734 | 132.72360 | 33088 ft | 477 kts | 180° |
| 2026-04-14 05:22 | 37.31208 | 132.73633 | 33088 ft | 477 kts | 180° |
| 2026-04-14 05:23 | 37.24686 | 132.74973 | 33088 ft | 478 kts | 180° |
| 2026-04-14 05:23 | 37.18140 | 132.76318 | 33067 ft | 479 kts | 180° |
| 2026-04-14 05:24 | 37.11602 | 132.77660 | 33067 ft | 479 kts | 180° |
| 2026-04-14 05:24 | 37.05035 | 132.79002 | 33067 ft | 479 kts | 180° |
| 2026-04-14 05:25 | 36.98498 | 132.80339 | 33068 ft | 479 kts | 180° |
| 2026-04-14 05:25 | 36.91966 | 132.81671 | 33068 ft | 479 kts | 180° |
| 2026-04-14 05:26 | 36.85422 | 132.83003 | 33069 ft | 479 kts | 180° |
| 2026-04-14 05:26 | 36.78858 | 132.84337 | 33069 ft | 479 kts | 180° |
| 2026-04-14 05:27 | 36.72334 | 132.85661 | 33061 ft | 478 kts | 180° |
| 2026-04-14 05:27 | 36.65793 | 132.86984 | 33057 ft | 477 kts | 180° |
| 2026-04-14 05:28 | 36.59297 | 132.88294 | 33056 ft | 477 kts | 180° |
| 2026-04-14 05:28 | 36.52743 | 132.89612 | 33057 ft | 477 kts | 180° |
| 2026-04-14 05:29 | 36.46241 | 132.90918 | 33057 ft | 477 kts | 180° |
| 2026-04-14 05:29 | 36.39698 | 132.92230 | 33057 ft | 477 kts | 180° |
| 2026-04-14 05:30 | 36.33147 | 132.93543 | 33057 ft | 477 kts | 180° |
| 2026-04-14 05:30 | 36.26620 | 132.94847 | 33057 ft | 477 kts | 180° |
| 2026-04-14 05:31 | 36.20116 | 132.96143 | 33039 ft | 480 kts | 180° |
| 2026-04-14 05:31 | 36.13559 | 132.97452 | 33038 ft | 479 kts | 180° |
| 2026-04-14 05:32 | 36.06993 | 132.98758 | 33038 ft | 479 kts | 180° |
| 2026-04-14 05:32 | 36.00426 | 133.00061 | 33038 ft | 479 kts | 180° |
| 2026-04-14 05:33 | 35.93895 | 133.01356 | 33039 ft | 479 kts | 180° |
| 2026-04-14 05:33 | 35.87316 | 133.02658 | 33040 ft | 479 kts | 180° |
| 2026-04-14 05:34 | 35.77485 | 133.04599 | 33040 ft | 479 kts | 180° |
| 2026-04-14 05:34 | 35.70929 | 133.05891 | 33020 ft | 481 kts | 181° |
| 2026-04-14 05:35 | 35.64369 | 133.07489 | 33024 ft | 492 kts | 171° |
| 2026-04-14 05:35 | 35.61176 | 133.09056 | 33027 ft | 505 kts | 162° |
| 2026-04-14 05:35 | 35.58115 | 133.11249 | 33028 ft | 517 kts | 153° |
| 2026-04-14 05:36 | 35.52764 | 133.17300 | 33028 ft | 536 kts | 135° |
| 2026-04-14 05:36 | 35.48838 | 133.25224 | 33030 ft | 551 kts | 117° |
| 2026-04-14 05:37 | 35.46770 | 133.34294 | 33026 ft | 558 kts | 98° |
| 2026-04-14 05:37 | 35.46161 | 133.43710 | 33021 ft | 558 kts | 98° |
| 2026-04-14 05:38 | 35.44875 | 133.53070 | 33021 ft | 557 kts | 103° |
| 2026-04-14 05:38 | 35.43277 | 133.62335 | 33022 ft | 557 kts | 104° |
| 2026-04-14 05:39 | 35.41586 | 133.71568 | 33005 ft | 556 kts | 105° |
| 2026-04-14 05:39 | 35.39861 | 133.80788 | 33010 ft | 554 kts | 105° |
| 2026-04-14 05:40 | 35.38129 | 133.89961 | 33014 ft | 554 kts | 105° |
| 2026-04-14 05:40 | 35.36389 | 133.99123 | 33015 ft | 554 kts | 105° |
| 2026-04-14 05:41 | 35.34649 | 134.08240 | 33016 ft | 554 kts | 105° |
| 2026-04-14 05:41 | 35.32912 | 134.17351 | 33018 ft | 554 kts | 105° |
| 2026-04-14 05:42 | 35.31229 | 134.26411 | 33019 ft | 554 kts | 105° |
| 2026-04-14 05:42 | 35.29516 | 134.35576 | 32994 ft | 551 kts | 105° |
| 2026-04-14 05:43 | 35.27804 | 134.44688 | 32996 ft | 553 kts | 105° |
| 2026-04-14 05:43 | 35.26089 | 134.53870 | 32997 ft | 552 kts | 104° |
| 2026-04-14 05:44 | 35.24395 | 134.62970 | 33010 ft | 551 kts | 104° |
| 2026-04-14 05:44 | 35.22686 | 134.72108 | 33005 ft | 550 kts | 104° |
| 2026-04-14 05:45 | 35.20983 | 134.81190 | 33004 ft | 551 kts | 105° |
| 2026-04-14 05:45 | 35.19270 | 134.90266 | 33005 ft | 551 kts | 105° |
| 2026-04-14 05:46 | 35.17536 | 134.99416 | 33007 ft | 551 kts | 105° |
| 2026-04-14 05:46 | 35.15813 | 135.08472 | 33008 ft | 551 kts | 105° |
| 2026-04-14 05:47 | 35.13345 | 135.17274 | 33019 ft | 544 kts | 121° |
| 2026-04-14 05:47 | 35.09130 | 135.24730 | 33020 ft | 531 kts | 139° |
| 2026-04-14 05:48 | 35.03716 | 135.30647 | 33021 ft | 517 kts | 154° |
| 2026-04-14 05:48 | 34.97445 | 135.34390 | 33023 ft | 497 kts | 170° |
| 2026-04-14 05:49 | 34.90869 | 135.36815 | 33014 ft | 494 kts | 172° |
| 2026-04-14 05:49 | 34.84285 | 135.39084 | 33015 ft | 493 kts | 173° |
| 2026-04-14 05:50 | 34.77690 | 135.40486 | 33023 ft | 476 kts | 186° |
| 2026-04-14 05:50 | 34.71077 | 135.40906 | 33014 ft | 477 kts | 185° |
| 2026-04-14 05:51 | 34.64443 | 135.41318 | 33013 ft | 477 kts | 185° |
| 2026-04-14 05:51 | 34.57844 | 135.41717 | 33014 ft | 477 kts | 185° |
| 2026-04-14 05:52 | 34.51266 | 135.42110 | 33014 ft | 477 kts | 185° |
| 2026-04-14 05:52 | 34.44654 | 135.42503 | 33014 ft | 477 kts | 185° |
| 2026-04-14 05:53 | 34.38045 | 135.42896 | 33014 ft | 477 kts | 185° |
| 2026-04-14 05:53 | 34.31455 | 135.43286 | 33014 ft | 477 kts | 185° |
| 2026-04-14 05:54 | 34.24826 | 135.43678 | 33014 ft | 477 kts | 185° |
| 2026-04-14 05:54 | 34.18185 | 135.44069 | 33008 ft | 483 kts | 186° |
| 2026-04-14 05:55 | 34.11491 | 135.44466 | 33006 ft | 481 kts | 186° |
| 2026-04-14 05:55 | 34.04850 | 135.44856 | 33007 ft | 482 kts | 186° |
| 2026-04-14 05:56 | 33.98171 | 135.45647 | 33014 ft | 494 kts | 175° |
| 2026-04-14 05:56 | 33.94845 | 135.46863 | 33016 ft | 506 kts | 166° |
| 2026-04-14 05:56 | 33.91656 | 135.48663 | 33016 ft | 515 kts | 159° |
| 2026-04-14 05:57 | 33.85375 | 135.52814 | 33006 ft | 515 kts | 159° |
| 2026-04-14 05:57 | 33.79122 | 135.56934 | 33007 ft | 515 kts | 159° |
| 2026-04-14 05:58 | 33.72870 | 135.61046 | 33017 ft | 516 kts | 159° |
| 2026-04-14 05:58 | 33.66552 | 135.65196 | 33030 ft | 517 kts | 159° |
| 2026-04-14 05:59 | 33.60283 | 135.69308 | 33015 ft | 515 kts | 159° |
| 2026-04-14 05:59 | 33.54012 | 135.73413 | 33016 ft | 516 kts | 159° |
| 2026-04-14 06:00 | 33.47730 | 135.77519 | 33032 ft | 515 kts | 159° |
| 2026-04-14 06:00 | 33.41346 | 135.81007 | 33041 ft | 504 kts | 169° |
| 2026-04-14 06:01 | 33.34752 | 135.83838 | 33034 ft | 504 kts | 168° |
| 2026-04-14 06:01 | 33.28168 | 135.86694 | 33035 ft | 504 kts | 168° |
| 2026-04-14 06:02 | 33.21591 | 135.89551 | 33005 ft | 507 kts | 168° |
| 2026-04-14 06:02 | 33.14965 | 135.92429 | 32990 ft | 511 kts | 169° |
| 2026-04-14 06:03 | 33.08308 | 135.95312 | 32991 ft | 513 kts | 170° |
| 2026-04-14 06:04 | 32.98302 | 135.99638 | 32992 ft | 512 kts | 170° |
| 2026-04-14 06:04 | 32.91622 | 136.02521 | 32993 ft | 512 kts | 170° |
| 2026-04-14 06:05 | 32.84937 | 136.05402 | 32990 ft | 512 kts | 170° |
| 2026-04-14 06:05 | 32.78250 | 136.08279 | 32991 ft | 512 kts | 170° |
| 2026-04-14 06:06 | 32.71576 | 136.11150 | 32987 ft | 509 kts | 171° |
| 2026-04-14 06:06 | 32.64982 | 136.13976 | 32989 ft | 508 kts | 171° |
| 2026-04-14 06:07 | 32.58358 | 136.16809 | 32988 ft | 508 kts | 171° |
| 2026-04-14 06:07 | 32.51707 | 136.19650 | 32989 ft | 508 kts | 171° |
| 2026-04-14 06:08 | 32.45085 | 136.22476 | 32990 ft | 508 kts | 171° |
| 2026-04-14 06:08 | 32.38493 | 136.25284 | 32990 ft | 508 kts | 171° |
| 2026-04-14 06:09 | 32.31828 | 136.28116 | 32997 ft | 511 kts | 171° |
| 2026-04-14 06:09 | 32.25162 | 136.30948 | 32997 ft | 510 kts | 171° |
| 2026-04-14 06:10 | 32.18496 | 136.33774 | 32992 ft | 510 kts | 171° |
| 2026-04-14 06:10 | 32.11840 | 136.36589 | 32993 ft | 510 kts | 171° |
| 2026-04-14 06:11 | 32.05196 | 136.39397 | 32994 ft | 510 kts | 171° |
| 2026-04-14 06:11 | 31.98548 | 136.42201 | 32995 ft | 510 kts | 171° |
| 2026-04-14 06:12 | 31.91900 | 136.45001 | 32995 ft | 510 kts | 171° |
| 2026-04-14 06:12 | 31.85223 | 136.47809 | 32994 ft | 510 kts | 171° |
| 2026-04-14 06:13 | 31.78572 | 136.50601 | 32995 ft | 510 kts | 171° |
| 2026-04-14 06:13 | 31.71886 | 136.53403 | 32986 ft | 512 kts | 170° |
| 2026-04-14 06:14 | 31.65229 | 136.56190 | 32985 ft | 512 kts | 170° |
| 2026-04-14 06:14 | 31.58530 | 136.58990 | 32987 ft | 512 kts | 170° |
| 2026-04-14 06:15 | 31.51839 | 136.61783 | 32987 ft | 512 kts | 170° |
| 2026-04-14 06:15 | 31.45163 | 136.64566 | 32988 ft | 512 kts | 170° |
| 2026-04-14 06:16 | 31.38516 | 136.67331 | 32967 ft | 510 kts | 171° |
| 2026-04-14 06:16 | 31.31860 | 136.70096 | 32968 ft | 511 kts | 171° |
| 2026-04-14 06:17 | 31.25145 | 136.72881 | 32969 ft | 511 kts | 171° |
| 2026-04-14 06:17 | 31.18530 | 136.75619 | 32965 ft | 508 kts | 170° |
| 2026-04-14 06:18 | 31.11867 | 136.78374 | 32974 ft | 511 kts | 170° |
| 2026-04-14 06:18 | 31.05201 | 136.81128 | 32974 ft | 510 kts | 170° |
| 2026-04-14 06:19 | 30.98519 | 136.83882 | 32975 ft | 510 kts | 170° |
| 2026-04-14 06:19 | 30.91881 | 136.86616 | 32976 ft | 510 kts | 170° |
| 2026-04-14 06:20 | 30.85214 | 136.89357 | 32974 ft | 510 kts | 170° |
| 2026-04-14 06:20 | 30.78542 | 136.92096 | 32974 ft | 510 kts | 170° |
| 2026-04-14 06:21 | 30.71863 | 136.94832 | 32969 ft | 508 kts | 169° |
| 2026-04-14 06:21 | 30.65257 | 136.97537 | 32969 ft | 507 kts | 169° |
| 2026-04-14 06:22 | 30.58630 | 137.00244 | 32969 ft | 508 kts | 169° |
| 2026-04-14 06:22 | 30.52012 | 137.02946 | 32970 ft | 507 kts | 169° |
| 2026-04-14 06:23 | 30.45343 | 137.05662 | 32970 ft | 507 kts | 169° |
| 2026-04-14 06:23 | 30.38722 | 137.08357 | 32971 ft | 507 kts | 169° |
| 2026-04-14 06:24 | 30.32099 | 137.11049 | 32972 ft | 507 kts | 169° |
| 2026-04-14 06:24 | 30.25467 | 137.13739 | 32972 ft | 507 kts | 169° |
| 2026-04-14 06:25 | 30.18857 | 137.16415 | 32948 ft | 504 kts | 169° |
| 2026-04-14 06:25 | 30.12238 | 137.19095 | 32952 ft | 505 kts | 169° |
| 2026-04-14 06:26 | 30.05650 | 137.21758 | 32951 ft | 505 kts | 169° |
| 2026-04-14 06:26 | 29.99025 | 137.24429 | 32952 ft | 505 kts | 169° |
| 2026-04-14 06:27 | 29.92448 | 137.27081 | 32964 ft | 506 kts | 169° |
| 2026-04-14 06:27 | 29.85808 | 137.29755 | 32962 ft | 505 kts | 169° |
| 2026-04-14 06:28 | 29.79191 | 137.32414 | 32963 ft | 505 kts | 169° |
| 2026-04-14 06:28 | 29.72596 | 137.35060 | 32955 ft | 505 kts | 168° |
| 2026-04-14 06:29 | 29.66021 | 137.37697 | 32947 ft | 503 kts | 168° |
| 2026-04-14 06:29 | 29.59410 | 137.40343 | 32948 ft | 504 kts | 168° |
| 2026-04-14 06:30 | 29.52805 | 137.42984 | 32949 ft | 504 kts | 168° |
| 2026-04-14 06:30 | 29.46233 | 137.45607 | 32949 ft | 504 kts | 168° |
| 2026-04-14 06:31 | 29.39630 | 137.48239 | 32950 ft | 504 kts | 168° |
| 2026-04-14 06:31 | 29.33022 | 137.50870 | 32950 ft | 504 kts | 168° |
| 2026-04-14 06:32 | 29.26411 | 137.53499 | 32951 ft | 504 kts | 168° |
| 2026-04-14 06:32 | 29.19809 | 137.56117 | 32934 ft | 502 kts | 168° |
| 2026-04-14 06:33 | 29.13263 | 137.58714 | 32936 ft | 502 kts | 168° |
| 2026-04-14 06:33 | 29.06698 | 137.61314 | 32936 ft | 502 kts | 168° |
| 2026-04-14 06:34 | 28.96807 | 137.65224 | 32934 ft | 502 kts | 168° |
| 2026-04-14 06:34 | 28.90271 | 137.67802 | 32922 ft | 501 kts | 168° |
| 2026-04-14 06:35 | 28.83717 | 137.70386 | 32921 ft | 502 kts | 168° |
| 2026-04-14 06:35 | 28.77132 | 137.72977 | 32921 ft | 502 kts | 168° |
| 2026-04-14 06:36 | 28.70539 | 137.75566 | 32924 ft | 499 kts | 167° |
| 2026-04-14 06:36 | 28.64009 | 137.78130 | 32939 ft | 500 kts | 167° |
| 2026-04-14 06:37 | 28.57484 | 137.80688 | 32938 ft | 500 kts | 167° |
| 2026-04-14 06:37 | 28.50901 | 137.83266 | 32939 ft | 500 kts | 167° |
| 2026-04-14 06:38 | 28.44354 | 137.85825 | 32939 ft | 500 kts | 167° |
| 2026-04-14 06:38 | 28.37808 | 137.88380 | 32940 ft | 500 kts | 167° |
| 2026-04-14 06:39 | 28.31279 | 137.90927 | 32940 ft | 500 kts | 167° |
| 2026-04-14 06:39 | 28.24740 | 137.93474 | 32941 ft | 500 kts | 167° |
| 2026-04-14 06:40 | 28.18185 | 137.96021 | 32939 ft | 496 kts | 167° |
| 2026-04-14 06:40 | 28.11691 | 137.98544 | 32941 ft | 497 kts | 167° |
| 2026-04-14 06:41 | 28.05146 | 138.01083 | 32941 ft | 497 kts | 167° |
| 2026-04-14 06:41 | 27.98642 | 138.03604 | 32942 ft | 497 kts | 167° |
| 2026-04-14 06:42 | 27.92123 | 138.06126 | 32942 ft | 497 kts | 167° |
| 2026-04-14 06:42 | 27.85619 | 138.08640 | 32941 ft | 497 kts | 167° |
| 2026-04-14 06:43 | 27.79066 | 138.11168 | 32942 ft | 497 kts | 167° |
| 2026-04-14 06:43 | 27.72552 | 138.13678 | 32944 ft | 497 kts | 166° |
| 2026-04-14 06:44 | 27.66050 | 138.16180 | 32945 ft | 497 kts | 166° |
| 2026-04-14 06:44 | 27.59541 | 138.18684 | 32946 ft | 497 kts | 166° |
| 2026-04-14 06:45 | 27.52989 | 138.21201 | 32946 ft | 497 kts | 166° |
| 2026-04-14 06:45 | 27.46493 | 138.23691 | 32946 ft | 497 kts | 166° |
| 2026-04-14 06:46 | 27.36702 | 138.27440 | 32956 ft | 498 kts | 166° |
| 2026-04-14 06:47 | 27.30176 | 138.29936 | 32956 ft | 498 kts | 166° |
| 2026-04-14 06:47 | 27.23645 | 138.32430 | 32956 ft | 498 kts | 166° |
| 2026-04-14 06:48 | 27.17139 | 138.34909 | 32955 ft | 495 kts | 166° |
| 2026-04-14 06:48 | 27.10598 | 138.37402 | 32955 ft | 496 kts | 166° |
| 2026-04-14 06:49 | 27.04108 | 138.39871 | 32955 ft | 496 kts | 166° |
| 2026-04-14 06:49 | 26.97603 | 138.42342 | 32956 ft | 496 kts | 166° |
| 2026-04-14 06:50 | 26.91066 | 138.44823 | 32956 ft | 496 kts | 166° |
| 2026-04-14 06:50 | 26.84586 | 138.47279 | 32955 ft | 496 kts | 166° |
| 2026-04-14 06:51 | 26.78061 | 138.49750 | 32955 ft | 496 kts | 166° |
| 2026-04-14 06:51 | 26.71545 | 138.52212 | 32962 ft | 495 kts | 166° |
| 2026-04-14 06:52 | 26.65072 | 138.54657 | 32962 ft | 494 kts | 166° |
| 2026-04-14 06:52 | 26.58571 | 138.57109 | 32962 ft | 494 kts | 166° |
| 2026-04-14 06:53 | 26.52103 | 138.59546 | 32962 ft | 494 kts | 166° |
| 2026-04-14 06:53 | 26.45606 | 138.61992 | 32963 ft | 494 kts | 166° |
| 2026-04-14 06:54 | 26.39093 | 138.64439 | 32963 ft | 494 kts | 166° |
| 2026-04-14 06:54 | 26.32621 | 138.66869 | 32952 ft | 494 kts | 166° |
| 2026-04-14 06:55 | 26.26111 | 138.69310 | 32953 ft | 494 kts | 166° |
| 2026-04-14 06:55 | 26.19625 | 138.71736 | 32952 ft | 493 kts | 166° |
| 2026-04-14 06:56 | 26.13173 | 138.74152 | 32953 ft | 493 kts | 166° |
| 2026-04-14 06:56 | 26.06705 | 138.76569 | 32953 ft | 494 kts | 166° |
| 2026-04-14 06:57 | 26.00196 | 138.78998 | 32953 ft | 494 kts | 166° |
| 2026-04-14 06:57 | 25.93704 | 138.81418 | 32953 ft | 494 kts | 166° |
| 2026-04-14 06:58 | 25.87218 | 138.83833 | 32952 ft | 494 kts | 166° |
| 2026-04-14 06:58 | 25.80724 | 138.86249 | 32953 ft | 494 kts | 166° |
| 2026-04-14 06:59 | 25.74230 | 138.88661 | 32952 ft | 494 kts | 166° |
| 2026-04-14 06:59 | 25.67773 | 138.91055 | 32949 ft | 494 kts | 165° |
| 2026-04-14 07:00 | 25.61255 | 138.93472 | 32950 ft | 494 kts | 165° |
| 2026-04-14 07:00 | 25.54766 | 138.95874 | 32950 ft | 494 kts | 165° |
| 2026-04-14 07:01 | 25.48305 | 138.98263 | 32950 ft | 494 kts | 165° |
| 2026-04-14 07:01 | 25.41797 | 139.00667 | 32950 ft | 494 kts | 165° |
| 2026-04-14 07:02 | 25.35331 | 139.03053 | 32951 ft | 494 kts | 165° |
| 2026-04-14 07:02 | 25.28850 | 139.05441 | 32951 ft | 494 kts | 165° |
| 2026-04-14 07:03 | 25.22353 | 139.07832 | 32950 ft | 492 kts | 165° |
| 2026-04-14 07:03 | 25.15900 | 139.10205 | 32950 ft | 491 kts | 165° |
| 2026-04-14 07:04 | 25.09419 | 139.12585 | 32950 ft | 492 kts | 165° |
| 2026-04-14 07:04 | 25.02936 | 139.14964 | 32950 ft | 492 kts | 165° |
| 2026-04-14 07:05 | 24.96474 | 139.17352 | 32950 ft | 492 kts | 165° |
| 2026-04-14 07:05 | 24.90020 | 139.19748 | 32950 ft | 492 kts | 165° |
| 2026-04-14 07:06 | 24.83588 | 139.22133 | 32950 ft | 492 kts | 165° |
| 2026-04-14 07:06 | 24.77114 | 139.24532 | 32950 ft | 492 kts | 165° |
| 2026-04-14 07:07 | 24.70674 | 139.26912 | 32945 ft | 490 kts | 164° |
| 2026-04-14 07:07 | 24.64223 | 139.29298 | 32947 ft | 490 kts | 164° |
| 2026-04-14 07:08 | 24.57810 | 139.31665 | 32946 ft | 490 kts | 164° |
| 2026-04-14 07:08 | 24.51342 | 139.34052 | 32947 ft | 490 kts | 164° |
| 2026-04-14 07:09 | 24.44929 | 139.36414 | 32947 ft | 490 kts | 164° |
| 2026-04-14 07:09 | 24.38466 | 139.38792 | 32947 ft | 490 kts | 164° |
| 2026-04-14 07:10 | 24.32044 | 139.41153 | 32947 ft | 490 kts | 164° |
| 2026-04-14 07:10 | 24.25630 | 139.43509 | 32947 ft | 490 kts | 164° |
| 2026-04-14 07:11 | 24.19202 | 139.45865 | 32944 ft | 488 kts | 164° |
| 2026-04-14 07:11 | 24.12778 | 139.48219 | 32945 ft | 489 kts | 164° |
| 2026-04-14 07:12 | 24.06314 | 139.50586 | 32945 ft | 489 kts | 164° |
| 2026-04-14 07:12 | 23.99894 | 139.52934 | 32945 ft | 489 kts | 164° |
| 2026-04-14 07:13 | 23.93476 | 139.55278 | 32945 ft | 489 kts | 164° |
| 2026-04-14 07:13 | 23.87036 | 139.57628 | 32944 ft | 489 kts | 164° |
| 2026-04-14 07:14 | 23.80650 | 139.59955 | 32945 ft | 489 kts | 164° |
| 2026-04-14 07:14 | 23.74220 | 139.62295 | 32945 ft | 489 kts | 163° |
| 2026-04-14 07:15 | 23.67780 | 139.64638 | 32940 ft | 486 kts | 163° |
| 2026-04-14 07:15 | 23.61410 | 139.66952 | 32936 ft | 486 kts | 164° |
| 2026-04-14 07:16 | 23.54987 | 139.69284 | 32936 ft | 487 kts | 164° |
| 2026-04-14 07:16 | 23.48582 | 139.71606 | 32936 ft | 487 kts | 164° |
| 2026-04-14 07:17 | 23.42192 | 139.73921 | 32936 ft | 487 kts | 164° |
| 2026-04-14 07:17 | 23.35793 | 139.76236 | 32932 ft | 486 kts | 163° |
| 2026-04-14 07:18 | 23.29401 | 139.78548 | 32932 ft | 486 kts | 163° |
| 2026-04-14 07:18 | 23.23015 | 139.80853 | 32928 ft | 486 kts | 163° |
| 2026-04-14 07:19 | 23.16634 | 139.83156 | 32923 ft | 487 kts | 163° |
| 2026-04-14 07:19 | 23.10244 | 139.85458 | 32922 ft | 486 kts | 163° |
| 2026-04-14 07:20 | 23.03814 | 139.87775 | 32923 ft | 486 kts | 163° |
| 2026-04-14 07:20 | 22.97411 | 139.90077 | 32923 ft | 486 kts | 163° |
| 2026-04-14 07:21 | 22.91042 | 139.92366 | 32923 ft | 486 kts | 163° |
| 2026-04-14 07:21 | 22.84638 | 139.94664 | 32922 ft | 486 kts | 163° |
| 2026-04-14 07:22 | 22.78232 | 139.96962 | 32922 ft | 486 kts | 163° |
| 2026-04-14 07:22 | 22.71842 | 139.99249 | 32917 ft | 486 kts | 163° |
| 2026-04-14 07:23 | 22.65437 | 140.01543 | 32916 ft | 485 kts | 162° |
| 2026-04-14 07:23 | 22.59071 | 140.03819 | 32916 ft | 485 kts | 162° |
| 2026-04-14 07:24 | 22.52668 | 140.06107 | 32916 ft | 485 kts | 162° |
| 2026-04-14 07:24 | 22.46270 | 140.08391 | 32916 ft | 485 kts | 162° |
| 2026-04-14 07:25 | 22.39900 | 140.10661 | 32916 ft | 485 kts | 162° |
| 2026-04-14 07:25 | 22.33520 | 140.12933 | 32916 ft | 485 kts | 162° |
| 2026-04-14 07:26 | 22.27109 | 140.15214 | 32916 ft | 485 kts | 162° |
| 2026-04-14 07:26 | 22.20746 | 140.17476 | 32904 ft | 484 kts | 162° |
| 2026-04-14 07:27 | 22.14359 | 140.19745 | 32905 ft | 485 kts | 162° |
| 2026-04-14 07:27 | 22.07960 | 140.22015 | 32905 ft | 486 kts | 162° |
| 2026-04-14 07:28 | 22.01594 | 140.24272 | 32905 ft | 485 kts | 162° |
| 2026-04-14 07:28 | 21.95192 | 140.26540 | 32902 ft | 485 kts | 162° |
| 2026-04-14 07:29 | 21.88809 | 140.28798 | 32902 ft | 485 kts | 162° |
| 2026-04-14 07:29 | 21.82424 | 140.31055 | 32901 ft | 485 kts | 162° |
| 2026-04-14 07:30 | 21.76037 | 140.33310 | 32901 ft | 485 kts | 162° |
| 2026-04-14 07:30 | 21.69655 | 140.35561 | 32887 ft | 486 kts | 162° |
| 2026-04-14 07:31 | 21.63277 | 140.37808 | 32888 ft | 487 kts | 162° |
| 2026-04-14 07:31 | 21.56848 | 140.40073 | 32888 ft | 486 kts | 162° |
| 2026-04-14 07:32 | 21.50468 | 140.42317 | 32888 ft | 486 kts | 162° |
| 2026-04-14 07:32 | 21.44051 | 140.44572 | 32888 ft | 486 kts | 162° |
| 2026-04-14 07:33 | 21.37625 | 140.46829 | 32888 ft | 486 kts | 162° |
| 2026-04-14 07:33 | 21.31250 | 140.49066 | 32889 ft | 486 kts | 162° |
| 2026-04-14 07:34 | 21.18405 | 140.53566 | 32874 ft | 485 kts | 162° |
| 2026-04-14 07:35 | 21.12034 | 140.55795 | 32875 ft | 486 kts | 162° |
| 2026-04-14 07:35 | 21.05620 | 140.58038 | 32875 ft | 486 kts | 162° |
| 2026-04-14 07:36 | 20.99297 | 140.60516 | 32881 ft | 486 kts | 154° |
| 2026-04-14 07:36 | 20.93384 | 140.63992 | 32875 ft | 487 kts | 151° |
| 2026-04-14 07:37 | 20.87480 | 140.67513 | 32872 ft | 487 kts | 152° |
| 2026-04-14 07:37 | 20.81857 | 140.70872 | 32872 ft | 487 kts | 152° |
| 2026-04-14 07:38 | 20.75966 | 140.74393 | 32872 ft | 487 kts | 152° |
| 2026-04-14 07:38 | 20.70080 | 140.77910 | 32849 ft | 492 kts | 152° |
| 2026-04-14 07:39 | 20.64130 | 140.81461 | 32847 ft | 490 kts | 152° |
| 2026-04-14 07:39 | 20.58182 | 140.85007 | 32848 ft | 490 kts | 152° |
| 2026-04-14 07:40 | 20.52269 | 140.88530 | 32848 ft | 490 kts | 152° |
| 2026-04-14 07:40 | 20.46331 | 140.92065 | 32848 ft | 490 kts | 152° |
| 2026-04-14 07:41 | 20.40392 | 140.95598 | 32848 ft | 490 kts | 152° |
| 2026-04-14 07:41 | 20.34452 | 140.99127 | 32848 ft | 490 kts | 152° |
| 2026-04-14 07:42 | 20.28511 | 141.02655 | 32849 ft | 490 kts | 152° |
| 2026-04-14 07:42 | 20.22563 | 141.06183 | 32841 ft | 489 kts | 152° |
| 2026-04-14 07:43 | 20.16707 | 141.09654 | 32836 ft | 485 kts | 152° |
| 2026-04-14 07:43 | 20.10818 | 141.13141 | 32837 ft | 486 kts | 152° |
| 2026-04-14 07:44 | 20.04918 | 141.16632 | 32836 ft | 486 kts | 152° |
| 2026-04-14 07:44 | 19.99058 | 141.20096 | 32837 ft | 486 kts | 152° |
| 2026-04-14 07:45 | 19.93165 | 141.23576 | 32837 ft | 486 kts | 152° |
| 2026-04-14 07:45 | 19.87299 | 141.27035 | 32831 ft | 485 kts | 152° |
| 2026-04-14 07:46 | 19.81387 | 141.30522 | 32832 ft | 487 kts | 151° |
| 2026-04-14 07:46 | 19.75510 | 141.33977 | 32832 ft | 483 kts | 150° |
| 2026-04-14 07:47 | 19.69708 | 141.37401 | 32816 ft | 480 kts | 150° |
| 2026-04-14 07:47 | 19.63847 | 141.40848 | 32814 ft | 486 kts | 150° |
| 2026-04-14 07:48 | 19.57926 | 141.44325 | 32813 ft | 485 kts | 150° |
| 2026-04-14 07:48 | 19.52046 | 141.47778 | 32814 ft | 485 kts | 150° |
| 2026-04-14 07:49 | 19.46200 | 141.51209 | 32814 ft | 485 kts | 150° |
| 2026-04-14 07:49 | 19.40313 | 141.54658 | 32814 ft | 485 kts | 150° |
| 2026-04-14 07:50 | 19.34403 | 141.58119 | 32814 ft | 485 kts | 150° |
| 2026-04-14 07:50 | 19.28521 | 141.61562 | 32814 ft | 485 kts | 150° |
| 2026-04-14 07:51 | 19.22636 | 141.65004 | 32803 ft | 487 kts | 151° |
| 2026-04-14 07:51 | 19.16696 | 141.68474 | 32796 ft | 489 kts | 151° |
| 2026-04-14 07:52 | 19.10764 | 141.71936 | 32797 ft | 488 kts | 151° |
| 2026-04-14 07:52 | 19.04857 | 141.75380 | 32797 ft | 488 kts | 151° |
| 2026-04-14 07:53 | 18.98925 | 141.78836 | 32785 ft | 487 kts | 151° |
| 2026-04-14 07:53 | 18.93018 | 141.82275 | 32786 ft | 488 kts | 151° |
| 2026-04-14 07:54 | 18.87073 | 141.85735 | 32783 ft | 488 kts | 151° |
| 2026-04-14 07:54 | 18.81146 | 141.89180 | 32784 ft | 488 kts | 151° |
| 2026-04-14 07:55 | 18.75234 | 141.92615 | 32784 ft | 488 kts | 151° |
| 2026-04-14 07:55 | 18.69326 | 141.96042 | 32762 ft | 487 kts | 150° |
| 2026-04-14 07:56 | 18.63396 | 141.99481 | 32763 ft | 487 kts | 150° |
| 2026-04-14 07:56 | 18.57466 | 142.02918 | 32763 ft | 487 kts | 150° |
| 2026-04-14 07:57 | 18.51573 | 142.06331 | 32763 ft | 487 kts | 150° |
| 2026-04-14 07:57 | 18.45647 | 142.09758 | 32763 ft | 487 kts | 150° |
| 2026-04-14 07:58 | 18.39707 | 142.13193 | 32763 ft | 487 kts | 150° |
| 2026-04-14 07:58 | 18.33802 | 142.16603 | 32764 ft | 487 kts | 150° |
| 2026-04-14 07:59 | 18.27899 | 142.20010 | 32764 ft | 487 kts | 150° |
| 2026-04-14 07:59 | 18.21964 | 142.23431 | 32747 ft | 488 kts | 150° |
| 2026-04-14 08:00 | 18.16008 | 142.26863 | 32729 ft | 491 kts | 150° |
| 2026-04-14 08:00 | 18.10005 | 142.30322 | 32745 ft | 499 kts | 149° |
| 2026-04-14 08:00 | 18.06985 | 142.32054 | 32722 ft | 483 kts | 149° |
| 2026-04-14 08:01 | 18.04121 | 142.33702 | 32715 ft | 465 kts | 149° |
| 2026-04-14 08:01 | 17.98489 | 142.36943 | 32729 ft | 466 kts | 149° |
| 2026-04-14 08:02 | 17.92832 | 142.40193 | 32726 ft | 468 kts | 149° |
| 2026-04-14 08:02 | 17.87137 | 142.43463 | 32727 ft | 469 kts | 149° |
| 2026-04-14 08:03 | 17.81426 | 142.46739 | 32726 ft | 470 kts | 149° |
| 2026-04-14 08:03 | 17.75705 | 142.50018 | 32726 ft | 472 kts | 149° |
| 2026-04-14 08:04 | 17.69931 | 142.53325 | 32700 ft | 475 kts | 148° |
| 2026-04-14 08:04 | 17.64141 | 142.56641 | 32700 ft | 476 kts | 148° |
| 2026-04-14 08:05 | 17.58334 | 142.59961 | 32700 ft | 478 kts | 148° |
| 2026-04-14 08:05 | 17.52511 | 142.63290 | 32700 ft | 479 kts | 148° |
| 2026-04-14 08:06 | 17.46678 | 142.66621 | 32705 ft | 479 kts | 149° |
| 2026-04-14 08:06 | 17.40850 | 142.69946 | 32705 ft | 479 kts | 149° |
| 2026-04-14 08:07 | 17.35020 | 142.73271 | 32705 ft | 479 kts | 149° |
| 2026-04-14 08:07 | 17.29205 | 142.76584 | 32689 ft | 480 kts | 148° |
| 2026-04-14 08:08 | 17.23336 | 142.79925 | 32679 ft | 480 kts | 147° |
| 2026-04-14 08:08 | 17.17462 | 142.83182 | 32657 ft | 483 kts | 149° |
| 2026-04-14 08:09 | 17.11474 | 142.86311 | 32656 ft | 482 kts | 149° |
| 2026-04-14 08:09 | 17.05472 | 142.89453 | 32657 ft | 483 kts | 149° |
| 2026-04-14 08:10 | 16.99504 | 142.92577 | 32657 ft | 483 kts | 149° |
| 2026-04-14 08:10 | 16.93545 | 142.95694 | 32657 ft | 483 kts | 149° |
| 2026-04-14 08:11 | 16.87535 | 142.98834 | 32651 ft | 482 kts | 149° |
| 2026-04-14 08:11 | 16.81589 | 143.01941 | 32652 ft | 483 kts | 149° |
| 2026-04-14 08:12 | 16.75598 | 143.05067 | 32652 ft | 483 kts | 149° |
| 2026-04-14 08:12 | 16.69585 | 143.08205 | 32623 ft | 489 kts | 149° |
| 2026-04-14 08:13 | 16.63527 | 143.11362 | 32621 ft | 487 kts | 149° |
| 2026-04-14 08:13 | 16.57472 | 143.14514 | 32622 ft | 487 kts | 149° |
| 2026-04-14 08:14 | 16.51455 | 143.17645 | 32622 ft | 487 kts | 149° |
| 2026-04-14 08:14 | 16.45398 | 143.20796 | 32622 ft | 487 kts | 149° |
| 2026-04-14 08:15 | 16.39363 | 143.23932 | 32622 ft | 487 kts | 149° |
| 2026-04-14 08:15 | 16.33291 | 143.27084 | 32585 ft | 487 kts | 148° |
| 2026-04-14 08:16 | 16.27281 | 143.30205 | 32583 ft | 486 kts | 148° |
| 2026-04-14 08:16 | 16.21218 | 143.33350 | 32550 ft | 491 kts | 148° |
| 2026-04-14 08:17 | 16.15129 | 143.36507 | 32545 ft | 492 kts | 148° |
| 2026-04-14 08:17 | 16.09032 | 143.39664 | 32546 ft | 491 kts | 148° |
| 2026-04-14 08:18 | 16.02950 | 143.42812 | 32546 ft | 491 kts | 148° |
| 2026-04-14 08:18 | 15.96822 | 143.45981 | 32547 ft | 491 kts | 148° |
| 2026-04-14 08:19 | 15.90730 | 143.49130 | 32547 ft | 491 kts | 148° |
| 2026-04-14 08:19 | 15.84651 | 143.52269 | 32539 ft | 491 kts | 148° |
| 2026-04-14 08:20 | 15.78538 | 143.55425 | 32539 ft | 491 kts | 148° |
| 2026-04-14 08:20 | 15.72431 | 143.58574 | 32521 ft | 494 kts | 148° |
| 2026-04-14 08:21 | 15.66237 | 143.61771 | 32513 ft | 504 kts | 149° |
| 2026-04-14 08:21 | 15.59997 | 143.64983 | 32510 ft | 502 kts | 148° |
| 2026-04-14 08:22 | 15.53784 | 143.68179 | 32518 ft | 503 kts | 149° |
| 2026-04-14 08:22 | 15.47543 | 143.71390 | 32518 ft | 502 kts | 149° |
| 2026-04-14 08:23 | 15.41279 | 143.74611 | 32519 ft | 503 kts | 149° |
| 2026-04-14 08:23 | 15.35041 | 143.77812 | 32446 ft | 502 kts | 148° |
| 2026-04-14 08:24 | 15.28853 | 143.80989 | 32437 ft | 499 kts | 148° |
| 2026-04-14 08:24 | 15.22653 | 143.84174 | 32423 ft | 501 kts | 148° |
| 2026-04-14 08:25 | 15.16328 | 143.87419 | 32412 ft | 511 kts | 149° |
| 2026-04-14 08:25 | 15.09985 | 143.90665 | 32410 ft | 510 kts | 149° |
| 2026-04-14 08:26 | 15.03664 | 143.93901 | 32411 ft | 510 kts | 149° |
| 2026-04-14 08:26 | 14.97339 | 143.97137 | 32412 ft | 510 kts | 149° |
| 2026-04-14 08:27 | 14.90974 | 144.00366 | 32412 ft | 510 kts | 149° |
| 2026-04-14 08:27 | 14.84626 | 144.03569 | 32401 ft | 510 kts | 149° |
| 2026-04-14 08:28 | 14.78278 | 144.06770 | 32402 ft | 510 kts | 149° |
| 2026-04-14 08:28 | 14.71936 | 144.09967 | 32394 ft | 512 kts | 150° |
| 2026-04-14 08:29 | 14.65487 | 144.13219 | 32396 ft | 520 kts | 150° |
| 2026-04-14 08:29 | 14.59037 | 144.16461 | 32395 ft | 517 kts | 150° |
| 2026-04-14 08:30 | 14.52595 | 144.19701 | 32397 ft | 518 kts | 150° |
| 2026-04-14 08:30 | 14.46147 | 144.22942 | 32397 ft | 518 kts | 150° |
| 2026-04-14 08:31 | 14.39688 | 144.26186 | 32382 ft | 520 kts | 150° |
| 2026-04-14 08:31 | 14.33097 | 144.29497 | 32256 ft | 531 kts | 150° |
| 2026-04-14 08:31 | 14.29809 | 144.31145 | 32242 ft | 529 kts | 150° |
| 2026-04-14 08:32 | 14.23208 | 144.34454 | 32251 ft | 528 kts | 151° |
| 2026-04-14 08:32 | 14.16666 | 144.37738 | 32302 ft | 529 kts | 153° |
| 2026-04-14 08:33 | 14.10062 | 144.41042 | 32302 ft | 529 kts | 153° |
| 2026-04-14 08:33 | 14.03486 | 144.44333 | 32296 ft | 518 kts | 153° |
| 2026-04-14 08:34 | 14.00309 | 144.45923 | 32292 ft | 501 kts | 152° |
| 2026-04-14 08:34 | 13.97198 | 144.47482 | 32301 ft | 496 kts | 152° |
| 2026-04-14 08:34 | 13.90992 | 144.50591 | 32306 ft | 502 kts | 152° |
| 2026-04-14 08:35 | 13.84742 | 144.53717 | 32292 ft | 500 kts | 152° |
| 2026-04-14 08:35 | 13.78506 | 144.56807 | 32294 ft | 501 kts | 155° |
| 2026-04-14 08:36 | 13.71796 | 144.58661 | 32332 ft | 498 kts | 175° |
| 2026-04-14 08:36 | 13.68409 | 144.58780 | 32382 ft | 486 kts | 185° |
| 2026-04-14 08:36 | 13.65113 | 144.58371 | 32389 ft | 479 kts | 195° |
| 2026-04-14 08:37 | 13.58748 | 144.56474 | 32384 ft | 481 kts | 196° |
| 2026-04-14 08:37 | 13.52081 | 144.55910 | 32390 ft | 488 kts | 178° |
| 2026-04-14 08:38 | 13.45313 | 144.56520 | 32383 ft | 490 kts | 173° |
| 2026-04-14 08:38 | 13.38799 | 144.58470 | 32392 ft | 493 kts | 155° |
| 2026-04-14 08:39 | 13.33138 | 144.62357 | 32393 ft | 492 kts | 135° |
| 2026-04-14 08:39 | 13.28929 | 144.67766 | 32388 ft | 487 kts | 116° |
| 2026-04-14 08:40 | 13.26558 | 144.74146 | 32389 ft | 478 kts | 97° |
| 2026-04-14 08:40 | 13.26225 | 144.80887 | 32310 ft | 477 kts | 79° |
| 2026-04-14 08:41 | 13.27211 | 144.87634 | 32252 ft | 478 kts | 74° |
| 2026-04-14 08:41 | 13.28698 | 144.94235 | 32253 ft | 473 kts | 69° |
| 2026-04-14 08:42 | 13.30604 | 145.00642 | 32253 ft | 471 kts | 65° |
| 2026-04-14 08:42 | 13.32882 | 145.06915 | 32253 ft | 468 kts | 63° |
| 2026-04-14 08:43 | 13.35187 | 145.13162 | 32253 ft | 470 kts | 65° |
| 2026-04-14 08:43 | 13.37307 | 145.19490 | 32254 ft | 471 kts | 66° |
| 2026-04-14 08:44 | 13.39278 | 145.25885 | 32253 ft | 472 kts | 67° |
| 2026-04-14 08:44 | 13.41202 | 145.32454 | 32153 ft | 486 kts | 66° |
| 2026-04-14 08:45 | 13.44256 | 145.38547 | 32159 ft | 478 kts | 47° |
| 2026-04-14 08:45 | 13.48832 | 145.43224 | 32159 ft | 460 kts | 28° |
| 2026-04-14 08:46 | 13.54403 | 145.46173 | 32156 ft | 444 kts | 11° |
| 2026-04-14 08:46 | 13.60335 | 145.47463 | 32155 ft | 434 kts | 0° |
| 2026-04-14 08:47 | 13.66279 | 145.47635 | 32153 ft | 426 kts | 350° |
| 2026-04-14 08:47 | 13.72153 | 145.47188 | 32153 ft | 425 kts | 350° |
| 2026-04-14 08:48 | 13.77928 | 145.46457 | 32127 ft | 419 kts | 347° |
| 2026-04-14 08:48 | 13.80720 | 145.45935 | 32053 ft | 402 kts | 343° |
| 2026-04-14 08:48 | 13.83451 | 145.45531 | 31980 ft | 389 kts | 344° |
| 2026-04-14 08:49 | 13.88644 | 145.44428 | 31911 ft | 386 kts | 344° |
| 2026-04-14 08:49 | 13.93784 | 145.42940 | 31907 ft | 388 kts | 343° |
| 2026-04-14 08:50 | 13.98939 | 145.41527 | 31910 ft | 380 kts | 330° |
| 2026-04-14 08:50 | 14.03847 | 145.39528 | 31909 ft | 388 kts | 343° |
| 2026-04-14 08:51 | 14.09158 | 145.38623 | 31907 ft | 384 kts | 337° |
| 2026-04-14 08:51 | 14.13726 | 145.36060 | 31922 ft | 376 kts | 318° |
| 2026-04-14 08:52 | 14.17046 | 145.31935 | 31916 ft | 376 kts | 308° |
| 2026-04-14 08:52 | 14.20868 | 145.28339 | 31920 ft | 378 kts | 327° |
| 2026-04-14 08:53 | 14.25854 | 145.26524 | 31918 ft | 390 kts | 346° |
| 2026-04-14 08:53 | 14.28575 | 145.26386 | 31868 ft | 396 kts | 357° |
| 2026-04-14 08:53 | 14.31309 | 145.26791 | 31796 ft | 397 kts | 7° |
| 2026-04-14 08:54 | 14.33894 | 145.27718 | 31727 ft | 398 kts | 18° |
| 2026-04-14 08:54 | 14.36302 | 145.29158 | 31658 ft | 401 kts | 28° |
| 2026-04-14 08:54 | 14.40189 | 145.33353 | 31526 ft | 422 kts | 48° |
| 2026-04-14 08:55 | 14.41598 | 145.36044 | 31514 ft | 436 kts | 57° |
| 2026-04-14 08:55 | 14.42578 | 145.39062 | 31513 ft | 449 kts | 67° |
| 2026-04-14 08:55 | 14.43070 | 145.42287 | 31513 ft | 462 kts | 76° |
| 2026-04-14 08:55 | 14.43053 | 145.45601 | 31513 ft | 474 kts | 86° |
| 2026-04-14 08:56 | 14.42508 | 145.49019 | 31514 ft | 486 kts | 96° |
| 2026-04-14 08:56 | 14.41473 | 145.52344 | 31514 ft | 495 kts | 102° |
| 2026-04-14 08:56 | 14.39034 | 145.58946 | 31505 ft | 495 kts | 102° |
| 2026-04-14 08:57 | 14.36628 | 145.65582 | 31505 ft | 492 kts | 100° |
| 2026-04-14 08:57 | 14.35413 | 145.72354 | 31511 ft | 470 kts | 81° |
| 2026-04-14 08:58 | 14.35584 | 145.75665 | 31510 ft | 458 kts | 72° |
| 2026-04-14 08:58 | 14.36252 | 145.78806 | 31468 ft | 452 kts | 63° |
| 2026-04-14 08:58 | 14.39047 | 145.84560 | 31330 ft | 451 kts | 50° |
| 2026-04-14 08:59 | 14.42716 | 145.89831 | 31195 ft | 459 kts | 41° |
| 2026-04-14 08:59 | 14.47764 | 145.93880 | 31053 ft | 465 kts | 32° |
| 2026-04-14 09:00 | 14.53380 | 145.97113 | 30918 ft | 463 kts | 16° |
| 2026-04-14 09:00 | 14.59623 | 145.98422 | 30879 ft | 461 kts | 5° |
| 2026-04-14 09:01 | 14.65890 | 145.99674 | 30879 ft | 459 kts | 1° |
| 2026-04-14 09:01 | 14.72112 | 145.99182 | 30948 ft | 447 kts | 342° |
| 2026-04-14 09:02 | 14.77716 | 145.96637 | 30934 ft | 436 kts | 323° |
| 2026-04-14 09:02 | 14.82915 | 145.93689 | 30930 ft | 432 kts | 338° |
| 2026-04-14 09:03 | 14.88858 | 145.92679 | 30929 ft | 435 kts | 358° |
| 2026-04-14 09:03 | 14.94768 | 145.93835 | 30928 ft | 437 kts | 18° |
| 2026-04-14 09:04 | 14.99944 | 145.96997 | 30928 ft | 439 kts | 37° |
| 2026-04-14 09:04 | 15.03827 | 146.01839 | 30927 ft | 442 kts | 57° |
| 2026-04-14 09:05 | 15.05915 | 146.07783 | 30927 ft | 444 kts | 77° |
| 2026-04-14 09:05 | 15.05953 | 146.14154 | 30927 ft | 446 kts | 96° |
| 2026-04-14 09:06 | 15.04096 | 146.20268 | 30920 ft | 445 kts | 107° |
| 2026-04-14 09:06 | 15.01931 | 146.26160 | 30922 ft | 436 kts | 107° |
| 2026-04-14 09:07 | 14.99926 | 146.31928 | 31042 ft | 413 kts | 101° |
| 2026-04-14 09:07 | 14.99419 | 146.34778 | 31118 ft | 399 kts | 92° |
| 2026-04-14 09:07 | 14.99435 | 146.37601 | 31188 ft | 390 kts | 84° |
| 2026-04-14 09:08 | 15.01005 | 146.42882 | 31325 ft | 391 kts | 68° |
| 2026-04-14 09:08 | 15.02532 | 146.45247 | 31395 ft | 404 kts | 59° |
| 2026-04-14 09:08 | 15.04525 | 146.47368 | 31463 ft | 421 kts | 52° |
| 2026-04-14 09:09 | 15.08683 | 146.51617 | 31523 ft | 435 kts | 51° |
| 2026-04-14 09:09 | 15.11178 | 146.53497 | 31518 ft | 456 kts | 41° |
| 2026-04-14 09:09 | 15.14058 | 146.55009 | 31513 ft | 476 kts | 31° |
| 2026-04-14 09:10 | 15.17236 | 146.56079 | 31516 ft | 493 kts | 20° |
| 2026-04-14 09:10 | 15.20677 | 146.56689 | 31521 ft | 505 kts | 13° |
| 2026-04-14 09:10 | 15.27349 | 146.58644 | 31544 ft | 500 kts | 33° |
| 2026-04-14 09:11 | 15.30379 | 146.60368 | 31605 ft | 486 kts | 43° |
| 2026-04-14 09:11 | 15.32978 | 146.62431 | 31666 ft | 463 kts | 52° |
| 2026-04-14 09:11 | 15.35112 | 146.64757 | 31732 ft | 438 kts | 62° |
| 2026-04-14 09:11 | 15.36774 | 146.67311 | 31819 ft | 416 kts | 71° |
| 2026-04-14 09:12 | 15.37913 | 146.69984 | 31886 ft | 399 kts | 81° |
| 2026-04-14 09:12 | 15.38530 | 146.72710 | 31943 ft | 390 kts | 90° |
| 2026-04-14 09:12 | 15.38818 | 146.78308 | 31975 ft | 398 kts | 88° |
| 2026-04-14 09:13 | 15.39476 | 146.81128 | 32049 ft | 413 kts | 78° |
| 2026-04-14 09:13 | 15.40673 | 146.83920 | 32121 ft | 428 kts | 68° |
| 2026-04-14 09:13 | 15.42351 | 146.86507 | 32173 ft | 444 kts | 58° |
| 2026-04-14 09:13 | 15.44499 | 146.88863 | 32173 ft | 460 kts | 49° |
| 2026-04-14 09:14 | 15.47044 | 146.90877 | 32169 ft | 471 kts | 39° |
| 2026-04-14 09:14 | 15.49961 | 146.92499 | 32169 ft | 479 kts | 30° |
| 2026-04-14 09:14 | 15.55888 | 146.95433 | 32169 ft | 469 kts | 41° |
| 2026-04-14 09:15 | 15.60792 | 146.99730 | 32165 ft | 463 kts | 46° |
| 2026-04-14 09:15 | 15.66439 | 147.03065 | 32170 ft | 482 kts | 26° |
| 2026-04-14 09:16 | 15.73039 | 147.04658 | 32165 ft | 492 kts | 16° |
| 2026-04-14 09:16 | 15.79339 | 147.06818 | 32226 ft | 465 kts | 34° |
| 2026-04-14 09:17 | 15.82022 | 147.08545 | 32291 ft | 446 kts | 44° |
| 2026-04-14 09:17 | 15.84319 | 147.10645 | 32308 ft | 437 kts | 53° |
| 2026-04-14 09:17 | 15.87617 | 147.15771 | 32308 ft | 424 kts | 73° |
| 2026-04-14 09:18 | 15.88940 | 147.21556 | 32307 ft | 409 kts | 92° |
| 2026-04-14 09:18 | 15.88178 | 147.27315 | 32321 ft | 402 kts | 111° |
| 2026-04-14 09:19 | 15.86355 | 147.32855 | 32393 ft | 417 kts | 106° |
| 2026-04-14 09:19 | 15.86028 | 147.38972 | 32396 ft | 433 kts | 87° |
| 2026-04-14 09:20 | 15.87773 | 147.44983 | 32396 ft | 445 kts | 68° |
| 2026-04-14 09:20 | 15.91361 | 147.50272 | 32393 ft | 454 kts | 58° |
| 2026-04-14 09:21 | 15.95442 | 147.55246 | 32396 ft | 461 kts | 45° |
| 2026-04-14 09:21 | 16.00948 | 147.58820 | 32397 ft | 473 kts | 29° |
| 2026-04-14 09:22 | 16.06729 | 147.61937 | 32394 ft | 475 kts | 26° |
| 2026-04-14 09:22 | 16.13167 | 147.63503 | 32387 ft | 485 kts | 7° |
| 2026-04-14 09:23 | 16.19913 | 147.62920 | 32388 ft | 492 kts | 347° |
| 2026-04-14 09:23 | 16.26201 | 147.60223 | 32392 ft | 494 kts | 328° |
| 2026-04-14 09:24 | 16.31929 | 147.56346 | 32468 ft | 490 kts | 335° |
| 2026-04-14 09:24 | 16.38313 | 147.54176 | 32469 ft | 484 kts | 354° |
| 2026-04-14 09:25 | 16.44923 | 147.54155 | 32469 ft | 475 kts | 13° |
| 2026-04-14 09:25 | 16.51061 | 147.56239 | 32470 ft | 463 kts | 32° |
| 2026-04-14 09:26 | 16.56113 | 147.60173 | 32470 ft | 449 kts | 52° |
| 2026-04-14 09:26 | 16.59529 | 147.65466 | 32471 ft | 436 kts | 71° |
| 2026-04-14 09:27 | 16.60968 | 147.71464 | 32477 ft | 424 kts | 91° |
| 2026-04-14 09:27 | 16.60323 | 147.77469 | 32493 ft | 417 kts | 110° |
| 2026-04-14 09:28 | 16.58300 | 147.83139 | 32534 ft | 423 kts | 114° |
| 2026-04-14 09:28 | 16.56214 | 147.88866 | 32532 ft | 421 kts | 114° |
| 2026-04-14 09:29 | 16.54146 | 147.94540 | 32533 ft | 421 kts | 114° |
| 2026-04-14 09:29 | 16.52068 | 148.00240 | 32532 ft | 421 kts | 114° |
| 2026-04-14 09:30 | 16.50118 | 148.05957 | 32533 ft | 423 kts | 108° |
| 2026-04-14 09:30 | 16.49603 | 148.12105 | 32540 ft | 434 kts | 89° |
| 2026-04-14 09:31 | 16.51164 | 148.18222 | 32540 ft | 447 kts | 70° |
| 2026-04-14 09:31 | 16.54619 | 148.23660 | 32538 ft | 455 kts | 58° |
| 2026-04-14 09:32 | 16.58605 | 148.28778 | 32586 ft | 466 kts | 46° |
| 2026-04-14 09:32 | 16.64034 | 148.32596 | 32587 ft | 477 kts | 32° |
| 2026-04-14 09:33 | 16.66841 | 148.34369 | 32584 ft | 474 kts | 35° |
| 2026-04-14 09:33 | 16.72938 | 148.37048 | 32589 ft | 483 kts | 16° |
| 2026-04-14 09:34 | 16.79573 | 148.37643 | 32631 ft | 481 kts | 356° |
| 2026-04-14 09:34 | 16.86039 | 148.36078 | 32639 ft | 483 kts | 338° |
| 2026-04-14 09:35 | 16.91777 | 148.32466 | 32637 ft | 483 kts | 319° |
| 2026-04-14 09:35 | 16.96914 | 148.27980 | 32638 ft | 484 kts | 328° |
| 2026-04-14 09:36 | 17.03033 | 148.25177 | 32639 ft | 482 kts | 347° |
| 2026-04-14 09:36 | 17.09589 | 148.24490 | 32602 ft | 476 kts | 7° |
| 2026-04-14 09:37 | 17.15946 | 148.25967 | 32620 ft | 466 kts | 26° |
| 2026-04-14 09:37 | 17.21422 | 148.29430 | 32633 ft | 462 kts | 45° |
| 2026-04-14 09:38 | 17.25468 | 148.34460 | 32633 ft | 449 kts | 64° |
| 2026-04-14 09:38 | 17.27627 | 148.40422 | 32679 ft | 434 kts | 82° |
| 2026-04-14 09:39 | 17.27714 | 148.46635 | 32680 ft | 427 kts | 102° |
| 2026-04-14 09:39 | 17.25938 | 148.52524 | 32671 ft | 425 kts | 112° |
| 2026-04-14 09:40 | 17.23855 | 148.58261 | 32638 ft | 423 kts | 112° |
| 2026-04-14 09:40 | 17.21763 | 148.64029 | 32624 ft | 425 kts | 113° |
| 2026-04-14 09:41 | 17.19669 | 148.69794 | 32626 ft | 425 kts | 113° |
| 2026-04-14 09:41 | 17.17589 | 148.75516 | 32626 ft | 425 kts | 114° |
| 2026-04-14 09:42 | 17.15611 | 148.81343 | 32666 ft | 431 kts | 108° |
| 2026-04-14 09:42 | 17.15063 | 148.87642 | 32671 ft | 442 kts | 89° |
| 2026-04-14 09:43 | 17.16594 | 148.93895 | 32672 ft | 453 kts | 70° |
| 2026-04-14 09:43 | 17.19979 | 148.99483 | 32669 ft | 460 kts | 60° |
| 2026-04-14 09:44 | 17.23913 | 149.04736 | 32672 ft | 466 kts | 46° |
| 2026-04-14 09:44 | 17.29218 | 149.08656 | 32699 ft | 465 kts | 37° |
| 2026-04-14 09:45 | 17.34764 | 149.12006 | 32703 ft | 465 kts | 24° |
| 2026-04-14 09:45 | 17.41073 | 149.13449 | 32704 ft | 475 kts | 5° |
| 2026-04-14 09:46 | 17.47700 | 149.13261 | 32700 ft | 475 kts | 5° |
| 2026-04-14 09:46 | 17.54052 | 149.14625 | 32705 ft | 468 kts | 24° |
| 2026-04-14 09:47 | 17.59576 | 149.17982 | 32705 ft | 458 kts | 44° |
| 2026-04-14 09:47 | 17.63672 | 149.22922 | 32705 ft | 448 kts | 63° |
| 2026-04-14 09:48 | 17.65937 | 149.28900 | 32726 ft | 442 kts | 82° |
| 2026-04-14 09:48 | 17.66149 | 149.35278 | 32726 ft | 437 kts | 102° |
| 2026-04-14 09:49 | 17.64995 | 149.41476 | 32722 ft | 437 kts | 97° |
| 2026-04-14 09:49 | 17.65500 | 149.47847 | 32726 ft | 446 kts | 78° |
| 2026-04-14 09:50 | 17.68045 | 149.53812 | 32726 ft | 456 kts | 59° |
| 2026-04-14 09:50 | 17.71727 | 149.59233 | 32720 ft | 458 kts | 56° |
| 2026-04-14 09:51 | 17.76337 | 149.63863 | 32730 ft | 467 kts | 37° |
| 2026-04-14 09:51 | 17.81824 | 149.67508 | 32749 ft | 471 kts | 34° |
| 2026-04-14 09:52 | 17.87849 | 149.70172 | 32754 ft | 476 kts | 15° |
| 2026-04-14 09:52 | 17.94408 | 149.70729 | 32755 ft | 479 kts | 355° |
| 2026-04-14 09:53 | 18.01023 | 149.69830 | 32753 ft | 479 kts | 360° |
| 2026-04-14 09:53 | 18.07546 | 149.70705 | 32756 ft | 475 kts | 19° |
| 2026-04-14 09:54 | 18.13433 | 149.73662 | 32748 ft | 469 kts | 38° |
| 2026-04-14 09:54 | 18.18038 | 149.78348 | 32767 ft | 464 kts | 58° |
| 2026-04-14 09:55 | 18.20944 | 149.84282 | 32765 ft | 455 kts | 77° |
| 2026-04-14 09:55 | 18.21827 | 149.90730 | 32766 ft | 443 kts | 96° |
| 2026-04-14 09:56 | 18.20648 | 149.96965 | 32766 ft | 434 kts | 114° |
| 2026-04-14 09:56 | 18.19058 | 150.03078 | 32764 ft | 440 kts | 100° |
| 2026-04-14 09:57 | 18.19394 | 150.09535 | 32765 ft | 451 kts | 81° |
| 2026-04-14 09:57 | 18.21804 | 150.15710 | 32765 ft | 462 kts | 61° |
| 2026-04-14 09:58 | 18.25267 | 150.21368 | 32760 ft | 465 kts | 56° |
| 2026-04-14 09:58 | 18.29877 | 150.26071 | 32787 ft | 461 kts | 39° |
| 2026-04-14 09:59 | 18.35031 | 150.30022 | 32801 ft | 463 kts | 29° |
| 2026-04-14 09:59 | 18.41063 | 150.32367 | 32798 ft | 467 kts | 19° |
| 2026-04-14 10:00 | 18.47252 | 150.34210 | 32801 ft | 468 kts | 7° |
| 2026-04-14 10:00 | 18.53691 | 150.34024 | 32802 ft | 468 kts | 348° |
| 2026-04-14 10:01 | 18.59767 | 150.31679 | 32802 ft | 466 kts | 328° |
| 2026-04-14 10:01 | 18.64742 | 150.27477 | 32803 ft | 461 kts | 311° |
| 2026-04-14 10:02 | 18.69746 | 150.23231 | 32788 ft | 466 kts | 330° |
| 2026-04-14 10:02 | 18.75844 | 150.20845 | 32788 ft | 475 kts | 349° |
| 2026-04-14 10:03 | 18.82303 | 150.20598 | 32802 ft | 462 kts | 8° |
| 2026-04-14 10:03 | 18.88402 | 150.22533 | 32807 ft | 462 kts | 27° |
| 2026-04-14 10:04 | 18.93581 | 150.26445 | 32810 ft | 459 kts | 47° |
| 2026-04-14 10:04 | 18.97283 | 150.31923 | 32821 ft | 464 kts | 65° |
| 2026-04-14 10:05 | 18.99126 | 150.38371 | 32820 ft | 460 kts | 84° |
| 2026-04-14 10:05 | 18.98899 | 150.45033 | 32821 ft | 455 kts | 104° |
| 2026-04-14 10:06 | 18.96895 | 150.51346 | 32813 ft | 453 kts | 112° |
| 2026-04-14 10:06 | 18.94667 | 150.57538 | 32812 ft | 452 kts | 112° |
| 2026-04-14 10:07 | 18.92441 | 150.63725 | 32812 ft | 452 kts | 112° |
| 2026-04-14 10:07 | 18.90221 | 150.69899 | 32810 ft | 452 kts | 112° |
| 2026-04-14 10:08 | 18.88651 | 150.76306 | 32820 ft | 456 kts | 97° |
| 2026-04-14 10:08 | 18.89058 | 150.82976 | 32829 ft | 461 kts | 78° |
| 2026-04-14 10:09 | 18.91503 | 150.89233 | 32830 ft | 465 kts | 59° |